createdAt,value
2022-12-16T00:00:23.210Z,-2.9
2022-12-16T00:05:23.167Z,-3
2022-12-16T00:10:23.206Z,-3
2022-12-16T00:15:23.157Z,-3.1
2022-12-16T00:20:23.197Z,-3.1
2022-12-16T00:25:23.160Z,-3.1
2022-12-16T00:30:23.156Z,-3.1
2022-12-16T00:35:23.147Z,-3.2
2022-12-16T00:40:23.168Z,-3.2
2022-12-16T00:45:23.243Z,-3.3
2022-12-16T00:50:23.147Z,-3.3
2022-12-16T00:55:23.142Z,-3.3
2022-12-16T01:00:23.309Z,-3.3
2022-12-16T01:05:23.143Z,-3.4
2022-12-16T01:10:23.160Z,-3.4
2022-12-16T01:15:23.168Z,-3.4
2022-12-16T01:20:23.160Z,-3.4
2022-12-16T01:25:23.133Z,-3.4
2022-12-16T01:30:23.138Z,-3.5
2022-12-16T01:35:51.847Z,-3.6
2022-12-16T01:40:23.157Z,-3.6
2022-12-16T01:45:23.140Z,-3.6
2022-12-16T01:50:23.126Z,-3.6
2022-12-16T01:55:23.133Z,-3.6
2022-12-16T02:00:23.170Z,-3.7
2022-12-16T02:05:23.150Z,-3.7
2022-12-16T02:10:23.136Z,-3.8
2022-12-16T02:15:23.127Z,-3.8
2022-12-16T02:20:23.149Z,-3.8
2022-12-16T02:25:23.125Z,-3.8
2022-12-16T02:30:23.234Z,-3.9
2022-12-16T02:35:23.127Z,-3.9
2022-12-16T02:40:23.150Z,-3.9
2022-12-16T02:45:23.116Z,-3.9
2022-12-16T02:50:23.117Z,-4
2022-12-16T02:55:23.126Z,-4.1
2022-12-16T03:00:23.138Z,-4.1
2022-12-16T03:05:23.112Z,-4.1
2022-12-16T03:10:23.118Z,-4.1
2022-12-16T03:15:23.114Z,-4.1
2022-12-16T03:20:23.138Z,-4.1
2022-12-16T03:25:23.100Z,-4.2
2022-12-16T03:30:23.129Z,-4.2
2022-12-16T03:35:23.117Z,-4.2
2022-12-16T03:40:23.138Z,-4.3
2022-12-16T03:45:23.108Z,-4.3
2022-12-16T03:50:23.100Z,-4.3
2022-12-16T03:55:23.116Z,-4.3
2022-12-16T04:00:23.129Z,-4.3
2022-12-16T04:05:23.109Z,-4.4
2022-12-16T04:10:23.104Z,-4.4
2022-12-16T04:15:23.108Z,-4.4
2022-12-16T04:20:23.130Z,-4.4
2022-12-16T04:25:23.089Z,-4.4
2022-12-16T04:30:23.156Z,-4.5
2022-12-16T04:35:23.103Z,-4.5
2022-12-16T04:40:23.191Z,-4.6
2022-12-16T04:45:23.107Z,-4.6
2022-12-16T04:50:23.140Z,-4.6
2022-12-16T04:55:23.090Z,-4.6
2022-12-16T05:00:23.140Z,-4.7
2022-12-16T05:05:23.360Z,-4.7
2022-12-16T05:10:23.097Z,-4.8
2022-12-16T05:15:23.154Z,-4.8
2022-12-16T05:20:23.182Z,-4.8
2022-12-16T05:25:23.084Z,-4.8
2022-12-16T05:30:23.083Z,-4.8
2022-12-16T05:35:23.094Z,-4.9
2022-12-16T05:40:23.103Z,-4.9
2022-12-16T05:45:23.091Z,-4.9
2022-12-16T05:50:23.079Z,-4.9
2022-12-16T05:55:23.079Z,-4.9
2022-12-16T06:00:23.117Z,-5
2022-12-16T06:05:23.090Z,-5
2022-12-16T06:10:23.075Z,-5.1
2022-12-16T06:15:23.070Z,-5.1
2022-12-16T06:20:23.099Z,-5.1
2022-12-16T06:25:23.066Z,-5.2
2022-12-16T06:30:23.171Z,-5.2
2022-12-16T06:35:23.065Z,-5.3
2022-12-16T06:40:23.148Z,-5.3
2022-12-16T06:45:23.146Z,-5.3
2022-12-16T06:50:23.066Z,-5.3
2022-12-16T06:55:23.054Z,-5.4
2022-12-16T07:00:23.100Z,-5.4
2022-12-16T07:05:23.067Z,-5.4
2022-12-16T07:10:23.061Z,-5.4
2022-12-16T07:15:23.052Z,-5.5
2022-12-16T07:20:23.083Z,-5.5
2022-12-16T07:25:23.047Z,-5.6
2022-12-16T07:30:23.052Z,-5.6
2022-12-16T07:35:23.048Z,-5.6
2022-12-16T07:40:23.071Z,-5.6
2022-12-16T07:45:23.093Z,-5.6
2022-12-16T07:50:23.046Z,-5.7
2022-12-16T07:55:23.053Z,-5.7
2022-12-16T08:00:23.063Z,-5.7
2022-12-16T08:05:23.042Z,-5.7
2022-12-16T08:10:23.089Z,-5.8
2022-12-16T08:15:23.070Z,-5.8
2022-12-16T08:20:23.082Z,-5.8
2022-12-16T08:25:23.080Z,-5.8
2022-12-16T08:30:23.047Z,-5.8
2022-12-16T08:35:23.032Z,-5.8
2022-12-16T08:40:35.143Z,-5.8
2022-12-16T08:45:23.032Z,-5.8
2022-12-16T08:50:23.025Z,-5.8
2022-12-16T08:55:27.755Z,-5.7
2022-12-16T09:00:23.118Z,-5.7
2022-12-16T09:05:23.026Z,-5.6
2022-12-16T09:10:23.034Z,-5.6
2022-12-16T09:15:23.013Z,-5.6
2022-12-16T09:20:23.142Z,-5.5
2022-12-16T09:25:23.009Z,-5.4
2022-12-16T09:30:23.080Z,-5.4
2022-12-16T09:35:23.011Z,-5.3
2022-12-16T09:40:23.117Z,-5.3
2022-12-16T09:45:23.017Z,-5.2
2022-12-16T09:50:23.086Z,-5.1
2022-12-16T09:55:23.001Z,-5
2022-12-16T10:00:23.139Z,-4.9
2022-12-16T10:05:23.028Z,-4.8
2022-12-16T10:10:23.013Z,-4.8
2022-12-16T10:15:23.050Z,-4.7
2022-12-16T10:20:23.058Z,-4.6
2022-12-16T10:25:25.109Z,-4.5
2022-12-16T10:30:23.046Z,-4.4
2022-12-16T10:35:23.020Z,-4.3
2022-12-16T10:40:23.107Z,-4.2
2022-12-16T10:45:23.028Z,-4.1
2022-12-16T10:50:23.012Z,-4.1
2022-12-16T10:55:23.010Z,-3.9
2022-12-16T11:00:23.041Z,-3.9
2022-12-16T11:05:23.000Z,-3.8
2022-12-16T11:10:23.292Z,-3.7
2022-12-16T11:15:30.171Z,-3.6
2022-12-16T11:20:23.057Z,-3.6
2022-12-16T11:25:22.989Z,-3.4
2022-12-16T11:30:23.025Z,-3.4
2022-12-16T11:35:23.001Z,-3.3
2022-12-16T11:40:23.023Z,-3.2
2022-12-16T11:45:22.995Z,-3.1
2022-12-16T11:50:22.989Z,-3.1
2022-12-16T11:55:35.925Z,-2.9
2022-12-16T12:00:23.076Z,-2.9
2022-12-16T12:05:22.982Z,-2.8
2022-12-16T12:10:22.987Z,-2.8
2022-12-16T12:15:22.981Z,-2.7
2022-12-16T12:20:23.079Z,-2.6
2022-12-16T12:25:22.980Z,-2.5
2022-12-16T12:30:22.992Z,-2.4
2022-12-16T12:35:22.993Z,-2.4
2022-12-16T12:40:23.010Z,-2.3
2022-12-16T12:45:23.091Z,-2.3
2022-12-16T12:50:22.971Z,-2.2
2022-12-16T12:55:22.981Z,-2.1
2022-12-16T13:00:22.999Z,-2.1
2022-12-16T13:05:24.661Z,-2
2022-12-16T13:10:22.983Z,-1.9
2022-12-16T13:15:22.973Z,-1.9
2022-12-16T13:20:22.997Z,-1.9
2022-12-16T13:25:24.168Z,-1.8
2022-12-16T13:30:22.972Z,-1.8
2022-12-16T13:35:22.967Z,-1.7
2022-12-16T13:40:22.989Z,-1.7
2022-12-16T13:45:22.999Z,-1.6
2022-12-16T13:50:22.975Z,-1.6
2022-12-16T13:55:24.859Z,-1.6
2022-12-16T14:00:23.000Z,-1.5
2022-12-16T14:05:22.966Z,-1.5
2022-12-16T14:10:23.008Z,-1.4
2022-12-16T14:15:22.973Z,-1.4
2022-12-16T14:20:23.185Z,-1.4
2022-12-16T14:25:27.619Z,-1.3
2022-12-16T14:30:22.941Z,-1.3
2022-12-16T14:35:22.959Z,-1.3
2022-12-16T14:40:22.967Z,-1.3
2022-12-16T14:45:22.930Z,-1.3
2022-12-16T14:50:22.947Z,-1.2
2022-12-16T14:55:24.907Z,-1.2
2022-12-16T15:00:22.960Z,-1.2
2022-12-16T15:05:22.978Z,-1.1
2022-12-16T15:10:23.019Z,-1.1
2022-12-16T15:15:23.054Z,-1.1
2022-12-16T15:20:23.085Z,-1.1
2022-12-16T15:25:23.043Z,-1.1
2022-12-16T15:30:23.047Z,-1.1
2022-12-16T15:35:23.041Z,-1.1
2022-12-16T15:40:23.470Z,-1.1
2022-12-16T15:45:23.037Z,-1.1
2022-12-16T15:50:23.051Z,-1.1
2022-12-16T15:55:23.037Z,-1.1
2022-12-16T16:00:23.091Z,-1.1
2022-12-16T16:05:23.031Z,-1
2022-12-16T16:10:23.036Z,-1
2022-12-16T16:15:23.068Z,-1
2022-12-16T16:20:23.066Z,-1
2022-12-16T16:25:23.032Z,-1
2022-12-16T16:30:23.026Z,-1
2022-12-16T16:35:23.079Z,-1
2022-12-16T16:40:23.119Z,-1
2022-12-16T16:45:23.181Z,-1
2022-12-16T16:50:23.328Z,-1
2022-12-16T16:55:23.322Z,-1
2022-12-16T17:00:23.467Z,-1
2022-12-16T17:05:23.331Z,-1
2022-12-16T17:10:23.405Z,-1
2022-12-16T17:15:23.545Z,-1
2022-12-16T17:20:23.579Z,-1
2022-12-16T17:25:23.570Z,-1
2022-12-16T17:30:23.641Z,-1
2022-12-16T17:35:23.742Z,-1
2022-12-16T17:40:23.888Z,-1
2022-12-16T17:45:23.765Z,-1
2022-12-16T17:50:23.769Z,-1
2022-12-16T17:55:23.937Z,-1
2022-12-16T18:00:23.975Z,-1
2022-12-16T18:05:23.995Z,-1
2022-12-16T18:10:24.001Z,-1
2022-12-16T18:15:24.177Z,-1
2022-12-16T18:20:24.131Z,-1
2022-12-16T18:25:24.204Z,-1
2022-12-16T18:30:24.188Z,-1
2022-12-16T18:35:24.245Z,-1
2022-12-16T18:40:24.340Z,-1
2022-12-16T18:45:24.492Z,-1
2022-12-16T18:50:28.641Z,-0.9
2022-12-16T18:55:24.431Z,-1
2022-12-16T19:00:24.630Z,-0.9
2022-12-16T19:05:24.529Z,-0.9
2022-12-16T19:10:24.529Z,-0.9
2022-12-16T19:15:24.681Z,-0.9
2022-12-16T19:20:27.421Z,-0.9
2022-12-16T19:25:24.543Z,-0.9
2022-12-16T19:30:24.527Z,-0.9
2022-12-16T19:35:24.583Z,-0.9
2022-12-16T19:40:24.750Z,-0.9
2022-12-16T19:45:24.573Z,-0.9
2022-12-16T19:50:24.575Z,-0.9
2022-12-16T19:55:24.585Z,-0.9
2022-12-16T20:00:24.625Z,-0.9
2022-12-16T20:05:24.669Z,-0.9
2022-12-16T20:10:24.658Z,-0.9
2022-12-16T20:15:24.780Z,-0.9
2022-12-16T20:20:24.780Z,-0.9
2022-12-16T20:25:24.744Z,-0.9
2022-12-16T20:30:24.787Z,-0.9
2022-12-16T20:35:24.902Z,-0.9
2022-12-16T20:40:24.862Z,-0.9
2022-12-16T20:45:24.897Z,-0.9
2022-12-16T20:50:25.007Z,-0.9
2022-12-16T20:55:24.962Z,-0.9
2022-12-16T21:00:25.108Z,-0.9
2022-12-16T21:05:25.113Z,-0.8
2022-12-16T21:10:25.106Z,-0.8
2022-12-16T21:15:25.219Z,-0.8
2022-12-16T21:20:25.260Z,-0.8
2022-12-16T21:25:25.334Z,-0.8
2022-12-16T21:30:25.323Z,-0.8
2022-12-16T21:35:25.368Z,-0.8
2022-12-16T21:40:25.386Z,-0.8
2022-12-16T21:45:25.378Z,-0.8
2022-12-16T21:50:25.474Z,-0.8
2022-12-16T21:55:25.451Z,-0.8
2022-12-16T22:00:25.571Z,-0.8
2022-12-16T22:05:25.464Z,-0.8
2022-12-16T22:10:25.435Z,-0.7
2022-12-16T22:15:25.506Z,-0.7
2022-12-16T22:20:25.617Z,-0.7
2022-12-16T22:25:25.517Z,-0.7
2022-12-16T22:30:25.535Z,-0.7
2022-12-16T22:35:25.578Z,-0.7
2022-12-16T22:40:25.682Z,-0.6
2022-12-16T22:45:25.593Z,-0.6
2022-12-16T22:50:25.673Z,-0.6
2022-12-16T22:55:25.666Z,-0.6
2022-12-16T23:00:25.702Z,-0.6
2022-12-16T23:05:27.872Z,-0.6
2022-12-16T23:10:25.669Z,-0.6
2022-12-16T23:15:25.899Z,-0.6
2022-12-16T23:20:25.732Z,-0.5
2022-12-16T23:25:25.817Z,-0.5
2022-12-16T23:30:25.802Z,-0.5
2022-12-16T23:35:25.919Z,-0.5
2022-12-16T23:40:26.005Z,-0.4
2022-12-16T23:45:26.010Z,-0.4
2022-12-16T23:50:26.011Z,-0.4
2022-12-16T23:55:26.112Z,-0.4
